Time;durP1;ratioP1;P1;durP2;ratioP2;P2;SDS_P1;SDS_P2;PMS_P1;PMS_P2;Temp;Humidity;BMP_temperature;BMP_pressure;BME280_temperature;BME280_humidity;BME280_pressure;Samples;Min_cycle;Max_cycle;Signal;HPM_P1;HPM_P2
2022/11/17 00:00:53;;;;;;;14.52;9.88;;;;;;;;;;4993824;28;20062;-63
2022/11/17 00:03:18;;;;;;;15.27;10.23;;;;;;;;;;4994039;28;20088;-64
2022/11/17 00:05:44;;;;;;;15.70;9.45;;;;;;;;;;4994121;28;20026;-63
2022/11/17 00:08:09;;;;;;;15.70;9.70;;;;;;;;;;4994121;28;20035;-63
2022/11/17 00:10:35;;;;;;;15.10;9.98;;;;;;;;;;4993984;28;20033;-63
2022/11/17 00:15:45;;;;;;;16.73;10.75;;;;;;;;;;4994189;28;20041;-63
2022/11/17 00:23:48;;;;;;;13.88;9.80;;;;;;;;;;4993885;28;20068;-67
2022/11/17 00:27:00;;;;;;;15.05;9.20;;;;;;;;;;4993683;28;20073;-68
2022/11/17 00:29:27;;;;;;;16.10;9.63;;;;;;;;;;4993824;28;20481;-67
2022/11/17 00:34:37;;;;;;;12.75;9.07;;;;;;;;;;4994021;28;20113;-63
2022/11/17 00:37:04;;;;;;;15.52;9.77;;;;;;;;;;4993568;28;20018;-65
2022/11/17 00:39:31;;;;;;;14.02;10.07;;;;;;;;;;4993562;28;20026;-63
2022/11/17 00:41:57;;;;;;;16.45;9.77;;;;;;;;;;4993426;28;20058;-63
2022/11/17 00:44:23;;;;;;;15.38;9.95;;;;;;;;;;4993493;28;20073;-64
2022/11/17 00:46:54;;;;;;;15.90;10.38;;;;;;;;;;4993444;28;20026;-64
2022/11/17 00:49:24;;;;;;;14.40;9.18;;;;;;;;;;4960974;28;20046;-64
2022/11/17 00:51:50;;;;;;;15.17;10.73;;;;;;;;;;4993356;28;20053;-63
2022/11/17 00:54:16;;;;;;;16.75;9.93;;;;;;;;;;4993399;28;20046;-63
2022/11/17 00:56:41;;;;;;;14.82;10.20;;;;;;;;;;4993561;28;20034;-63
2022/11/17 00:59:08;;;;;;;13.63;9.60;;;;;;;;;;4993240;28;20026;-63
2022/11/17 01:01:34;;;;;;;13.48;9.38;;;;;;;;;;4993014;28;20046;-63
2022/11/17 01:04:03;;;;;;;13.57;9.82;;;;;;;;;;4993147;28;20037;-62
2022/11/17 01:06:30;;;;;;;15.88;9.95;;;;;;;;;;4993036;28;20038;-62
2022/11/17 01:08:58;;;;;;;18.55;9.98;;;;;;;;;;4993088;28;20030;-63
2022/11/17 01:11:24;;;;;;;15.45;10.20;;;;;;;;;;4993108;28;20030;-63
2022/11/17 01:13:54;;;;;;;16.58;10.55;;;;;;;;;;4993137;28;20073;-63
2022/11/17 01:16:19;;;;;;;13.02;9.45;;;;;;;;;;4993417;28;20057;-66
2022/11/17 01:18:47;;;;;;;14.82;9.95;;;;;;;;;;4993152;28;20124;-66
2022/11/17 01:21:17;;;;;;;15.30;10.40;;;;;;;;;;4993252;28;20029;-63
2022/11/17 01:23:44;;;;;;;15.77;10.50;;;;;;;;;;4992986;28;20026;-63
2022/11/17 01:26:17;;;;;;;13.48;9.45;;;;;;;;;;4992951;28;20037;-63
2022/11/17 01:28:43;;;;;;;15.82;9.82;;;;;;;;;;4992949;28;20035;-64
2022/11/17 01:31:13;;;;;;;14.68;9.43;;;;;;;;;;4992897;28;20041;-63
2022/11/17 01:33:39;;;;;;;;;;;;;;;;;;4993392;28;20528;-63
2022/11/17 01:36:09;;;;;;;13.07;9.07;;;;;;;;;;4992875;28;19914;-65
2022/11/17 01:38:34;;;;;;;13.33;9.90;;;;;;;;;;4992793;28;20026;-64
2022/11/17 01:41:02;;;;;;;14.50;9.60;;;;;;;;;;4992768;28;20109;-64
2022/11/17 01:43:36;;;;;;;15.13;9.68;;;;;;;;;;4992794;28;20026;-64
2022/11/17 01:46:01;;;;;;;14.88;10.00;;;;;;;;;;4992664;28;20026;-63
2022/11/17 01:48:27;;;;;;;13.85;9.32;;;;;;;;;;4992707;28;20050;-64
2022/11/17 01:50:53;;;;;;;12.68;9.30;;;;;;;;;;4992698;28;20027;-63
2022/11/17 01:53:21;;;;;;;14.65;9.65;;;;;;;;;;4992942;28;20022;-64
2022/11/17 01:55:53;;;;;;;13.32;9.13;;;;;;;;;;4992663;28;20056;-64
2022/11/17 01:58:27;;;;;;;14.60;9.82;;;;;;;;;;4992639;28;20035;-65
2022/11/17 02:00:53;;;;;;;13.32;9.20;;;;;;;;;;4992505;28;20042;-64
2022/11/17 02:03:19;;;;;;;12.95;9.80;;;;;;;;;;4992601;28;20032;-65
2022/11/17 02:05:54;;;;;;;12.73;8.93;;;;;;;;;;4992650;28;20476;-64
2022/11/17 02:08:22;;;;;;;13.18;9.35;;;;;;;;;;4992699;28;20485;-64
2022/11/17 02:10:50;;;;;;;14.98;9.45;;;;;;;;;;4992618;28;20057;-64
2022/11/17 02:13:16;;;;;;;14.25;9.70;;;;;;;;;;4992587;28;20026;-64
2022/11/17 02:15:42;;;;;;;13.98;9.60;;;;;;;;;;4992758;28;20406;-64
2022/11/17 02:18:07;;;;;;;12.80;8.82;;;;;;;;;;4993724;28;20034;-64
2022/11/17 02:20:59;;;;;;;13.32;8.98;;;;;;;;;;4995950;28;20034;-64
2022/11/17 02:23:33;;;;;;;12.65;9.25;;;;;;;;;;4995996;28;20118;-64
2022/11/17 02:26:14;;;;;;;13.00;8.63;;;;;;;;;;4996009;28;20405;-64
2022/11/17 02:29:03;;;;;;;14.02;9.32;;;;;;;;;;4995974;28;20026;-64
2022/11/17 02:31:50;;;;;;;14.30;9.63;;;;;;;;;;4985442;28;20038;-64
2022/11/17 02:34:37;;;;;;;12.55;9.65;;;;;;;;;;4978376;28;20036;-63
2022/11/17 02:37:14;;;;;;;13.50;9.32;;;;;;;;;;4995822;28;20049;-63
2022/11/17 02:39:47;;;;;;;12.43;8.73;;;;;;;;;;4995744;28;20026;-64
2022/11/17 02:45:28;;;;;;;14.23;8.85;;;;;;;;;;4995787;28;20424;-64
2022/11/17 02:47:56;;;;;;;13.32;9.77;;;;;;;;;;4995857;28;20088;-64
2022/11/17 02:50:25;;;;;;;13.40;8.80;;;;;;;;;;4995530;28;20034;-67
2022/11/17 02:52:50;;;;;;;15.15;8.88;;;;;;;;;;4978114;28;20022;-66
2022/11/17 02:55:16;;;;;;;13.18;8.80;;;;;;;;;;4995511;28;20030;-64
2022/11/17 02:57:42;;;;;;;13.50;8.60;;;;;;;;;;4995438;28;20037;-64
2022/11/17 03:00:16;;;;;;;12.40;9.07;;;;;;;;;;4994946;28;20043;-65
2022/11/17 03:03:00;;;;;;;11.90;8.75;;;;;;;;;;4995237;28;20026;-65
2022/11/17 03:05:34;;;;;;;15.07;9.48;;;;;;;;;;4995288;28;20477;-66
2022/11/17 03:08:09;;;;;;;12.18;8.73;;;;;;;;;;4995233;28;20037;-67
2022/11/17 03:10:50;;;;;;;15.00;8.93;;;;;;;;;;4995439;28;20030;-65
2022/11/17 03:13:30;;;;;;;13.55;9.02;;;;;;;;;;4995007;28;20026;-68
2022/11/17 03:16:22;;;;;;;15.32;9.15;;;;;;;;;;4995026;28;20034;-66
2022/11/17 03:19:07;;;;;;;14.55;8.73;;;;;;;;;;4995282;28;20026;-65
2022/11/17 03:22:04;;;;;;;12.80;9.10;;;;;;;;;;4994797;28;20112;-64
2022/11/17 03:24:34;;;;;;;11.40;8.07;;;;;;;;;;4994762;28;20022;-64
2022/11/17 03:27:06;;;;;;;13.27;8.15;;;;;;;;;;4977493;28;20105;-64
2022/11/17 03:29:37;;;;;;;13.07;8.73;;;;;;;;;;4994831;28;20026;-64
2022/11/17 03:32:06;;;;;;;11.85;8.32;;;;;;;;;;4977301;28;20030;-64
2022/11/17 03:34:41;;;;;;;13.93;8.75;;;;;;;;;;4995040;28;20144;-63
2022/11/17 03:37:11;;;;;;;13.23;8.65;;;;;;;;;;4994617;28;20110;-66
2022/11/17 03:39:41;;;;;;;13.27;8.97;;;;;;;;;;4994664;28;20031;-64
2022/11/17 03:42:13;;;;;;;13.02;8.80;;;;;;;;;;4994524;28;20061;-64
2022/11/17 03:44:43;;;;;;;12.48;8.35;;;;;;;;;;4977074;28;20030;-64
2022/11/17 03:47:10;;;;;;;;;;;;;;;;;;4994910;28;20022;-64
2022/11/17 03:50:02;;;;;;;13.70;9.05;;;;;;;;;;4994484;28;19921;-63
2022/11/17 03:52:28;;;;;;;14.35;8.27;;;;;;;;;;4990463;28;20058;-64
2022/11/17 03:54:55;;;;;;;13.80;8.85;;;;;;;;;;4994580;28;20382;-64
2022/11/17 03:57:27;;;;;;;13.40;8.77;;;;;;;;;;4994226;28;20022;-65
2022/11/17 04:00:15;;;;;;;12.45;8.23;;;;;;;;;;4994035;28;20371;-63
2022/11/17 04:02:42;;;;;;;12.88;8.45;;;;;;;;;;4994185;28;20037;-64
2022/11/17 04:05:09;;;;;;;12.55;8.10;;;;;;;;;;4994114;28;20102;-64
2022/11/17 04:07:40;;;;;;;11.55;8.32;;;;;;;;;;4994013;28;20050;-64
2022/11/17 04:10:09;;;;;;;13.43;9.10;;;;;;;;;;4994054;28;20022;-63
2022/11/17 04:18:03;;;;;;;11.50;8.13;;;;;;;;;;4994252;28;20033;-63
2022/11/17 04:20:34;;;;;;;12.48;8.68;;;;;;;;;;4993697;28;20137;-65
2022/11/17 04:23:14;;;;;;;12.30;8.55;;;;;;;;;;4993800;28;20018;-62
2022/11/17 04:28:36;;;;;;;12.02;8.07;;;;;;;;;;4993998;28;20433;-63
2022/11/17 04:31:08;;;;;;;11.57;8.80;;;;;;;;;;4993656;28;20485;-63
2022/11/17 04:33:35;;;;;;;11.70;8.30;;;;;;;;;;4993526;28;20481;-63
2022/11/17 04:36:01;;;;;;;11.50;8.75;;;;;;;;;;4993640;28;20025;-62
2022/11/17 04:38:28;;;;;;;13.10;9.07;;;;;;;;;;4993550;28;20037;-62
2022/11/17 04:43:54;;;;;;;11.27;8.10;;;;;;;;;;4993762;28;20501;-63
2022/11/17 04:46:22;;;;;;;10.52;7.75;;;;;;;;;;4993342;28;20451;-63
2022/11/17 04:48:48;;;;;;;11.10;7.85;;;;;;;;;;4993317;28;20030;-64
2022/11/17 04:51:17;;;;;;;10.90;7.72;;;;;;;;;;4976021;28;20037;-65
2022/11/17 04:53:43;;;;;;;10.98;8.02;;;;;;;;;;4993234;28;20080;-63
2022/11/17 04:56:10;;;;;;;10.93;7.82;;;;;;;;;;4993334;28;20386;-64
2022/11/17 04:58:36;;;;;;;11.30;7.97;;;;;;;;;;4993312;28;20030;-64
2022/11/17 05:01:11;;;;;;;10.25;7.40;;;;;;;;;;4992976;28;20097;-64
2022/11/17 05:04:00;;;;;;;13.00;8.07;;;;;;;;;;4993228;28;20037;-65
2022/11/17 05:06:35;;;;;;;11.52;7.90;;;;;;;;;;4993127;28;20058;-64
2022/11/17 05:09:07;;;;;;;10.30;7.97;;;;;;;;;;4992196;28;20042;-64
2022/11/17 05:14:22;;;;;;;10.93;8.02;;;;;;;;;;4978356;28;20062;-64
2022/11/17 05:17:04;;;;;;;12.40;8.23;;;;;;;;;;4992057;28;20556;-65
2022/11/17 05:19:45;;;;;;;9.93;7.63;;;;;;;;;;4993029;28;20031;-63
2022/11/17 05:25:03;;;;;;;10.27;7.90;;;;;;;;;;4993277;28;20040;-64
2022/11/17 05:27:30;;;;;;;10.77;7.20;;;;;;;;;;4975863;28;20031;-64
2022/11/17 05:29:57;;;;;;;10.77;8.02;;;;;;;;;;4959392;28;20041;-66
2022/11/17 05:32:25;;;;;;;10.98;7.63;;;;;;;;;;4992831;28;20390;-64
2022/11/17 05:35:15;;;;;;;12.15;7.85;;;;;;;;;;4992774;28;20027;-63
2022/11/17 05:37:42;;;;;;;11.77;7.53;;;;;;;;;;4975460;28;20461;-63
2022/11/17 05:40:09;;;;;;;10.95;7.90;;;;;;;;;;4975375;28;20030;-63
2022/11/17 05:42:35;;;;;;;11.20;7.90;;;;;;;;;;4992738;28;20026;-63
2022/11/17 05:45:04;;;;;;;11.77;7.57;;;;;;;;;;4992614;28;20034;-63
2022/11/17 05:47:33;;;;;;;9.70;7.32;;;;;;;;;;4992266;28;20039;-64
2022/11/17 05:50:09;;;;;;;10.35;7.68;;;;;;;;;;4992559;28;20053;-65
2022/11/17 05:52:36;;;;;;;10.90;7.88;;;;;;;;;;4993054;28;20558;-65
2022/11/17 05:55:06;;;;;;;12.15;8.25;;;;;;;;;;4996675;28;20041;-64
2022/11/17 05:57:35;;;;;;;10.63;7.70;;;;;;;;;;4996322;28;20101;-66
2022/11/17 06:00:03;;;;;;;10.30;7.80;;;;;;;;;;4978576;28;20059;-64
2022/11/17 06:02:53;;;;;;;10.50;7.53;;;;;;;;;;4996294;28;20038;-65
2022/11/17 06:05:22;;;;;;;10.02;7.88;;;;;;;;;;4996046;28;20046;-64
2022/11/17 06:07:57;;;;;;;10.52;7.35;;;;;;;;;;4979416;28;20545;-65
2022/11/17 06:10:26;;;;;;;9.60;7.38;;;;;;;;;;4978465;28;20137;-64
2022/11/17 06:12:52;;;;;;;9.98;7.03;;;;;;;;;;4978803;28;20035;-64
2022/11/17 06:15:21;;;;;;;9.38;7.40;;;;;;;;;;4996121;28;20061;-66
2022/11/17 06:18:10;;;;;;;10.48;7.55;;;;;;;;;;4996341;28;20026;-64
2022/11/17 06:20:48;;;;;;;10.88;7.35;;;;;;;;;;4993880;28;20038;-65
2022/11/17 06:23:18;;;;;;;9.52;7.07;;;;;;;;;;4996018;28;20061;-66
2022/11/17 06:25:46;;;;;;;9.90;7.43;;;;;;;;;;4978461;28;20030;-66
2022/11/17 06:28:17;;;;;;;11.73;7.68;;;;;;;;;;4995716;28;20035;-66
2022/11/17 06:30:44;;;;;;;9.23;7.00;;;;;;;;;;4978789;28;20477;-66
2022/11/17 06:33:14;;;;;;;10.43;7.07;;;;;;;;;;4995825;28;20105;-67
2022/11/17 06:35:47;;;;;;;9.85;7.50;;;;;;;;;;4978771;28;20496;-66
2022/11/17 06:38:14;;;;;;;9.27;7.07;;;;;;;;;;4991134;28;20030;-67
2022/11/17 06:40:43;;;;;;;9.15;6.88;;;;;;;;;;4973449;28;20038;-67
2022/11/17 06:43:09;;;;;;;9.55;7.35;;;;;;;;;;4978481;28;20616;-68
2022/11/17 06:45:46;;;;;;;9.68;6.93;;;;;;;;;;5014867;28;20032;-67
2022/11/17 06:48:17;;;;;;;10.00;7.40;;;;;;;;;;5014854;28;20022;-67
2022/11/17 06:50:43;;;;;;;9.27;6.78;;;;;;;;;;5014824;28;20053;-65
2022/11/17 06:53:11;;;;;;;10.65;7.78;;;;;;;;;;5015082;28;20041;-66
2022/11/17 06:55:40;;;;;;;9.45;6.90;;;;;;;;;;5014863;28;20034;-66
2022/11/17 06:58:11;;;;;;;8.88;6.95;;;;;;;;;;5014896;28;20436;-66
2022/11/17 07:00:38;;;;;;;10.77;7.50;;;;;;;;;;4971874;28;20066;-67
2022/11/17 07:03:11;;;;;;;8.90;6.32;;;;;;;;;;4969848;28;20031;-67
2022/11/17 07:05:38;;;;;;;9.20;6.88;;;;;;;;;;4970397;28;21730;-67
2022/11/17 07:08:07;;;;;;;8.77;6.88;;;;;;;;;;4968315;28;20045;-68
2022/11/17 07:10:36;;;;;;;9.43;7.07;;;;;;;;;;4969123;28;20022;-66
2022/11/17 07:13:09;;;;;;;10.02;7.07;;;;;;;;;;4972131;28;20422;-67
2022/11/17 07:15:35;;;;;;;9.13;6.85;;;;;;;;;;5242066;22;20042;-69
2022/11/17 07:18:02;;;;;;;7.25;6.18;;;;;;;;;;5031386;28;20435;-69
2022/11/17 07:20:31;;;;;;;9.57;7.00;;;;;;;;;;5031818;28;20462;-69
2022/11/17 07:23:00;;;;;;;9.63;6.85;;;;;;;;;;5033169;28;20488;-68
2022/11/17 07:25:26;;;;;;;9.80;6.65;;;;;;;;;;5033869;28;20021;-69
2022/11/17 07:28:01;;;;;;;9.10;7.00;;;;;;;;;;5014379;28;20049;-69
2022/11/17 07:30:31;;;;;;;9.23;7.35;;;;;;;;;;5014267;28;20033;-69
2022/11/17 07:33:01;;;;;;;10.18;6.80;;;;;;;;;;5014142;28;20036;-68
2022/11/17 07:45:50;;;;;;;8.05;6.40;;;;;;;;;;5361216;22;20050;-68
2022/11/17 07:48:16;;;;;;;8.80;7.15;;;;;;;;;;5013645;28;20038;-69
2022/11/17 07:50:45;;;;;;;9.70;6.47;;;;;;;;;;5014223;28;20404;-69
2022/11/17 07:53:12;;;;;;;9.57;7.15;;;;;;;;;;5013767;28;20038;-68
2022/11/17 07:55:39;;;;;;;8.85;6.43;;;;;;;;;;5013473;28;20065;-66
2022/11/17 07:58:08;;;;;;;8.60;6.65;;;;;;;;;;5013589;28;20030;-69
2022/11/17 08:00:35;;;;;;;9.67;6.87;;;;;;;;;;5013527;28;20048;-69
2022/11/17 08:03:03;;;;;;;9.38;6.47;;;;;;;;;;5013897;28;20026;-68
2022/11/17 08:05:35;;;;;;;8.52;6.43;;;;;;;;;;5013608;28;20057;-69
2022/11/17 08:08:04;;;;;;;8.48;6.55;;;;;;;;;;5012653;28;20026;-69
2022/11/17 08:10:31;;;;;;;9.70;6.95;;;;;;;;;;5012285;28;20049;-67
2022/11/17 08:13:01;;;;;;;8.18;6.32;;;;;;;;;;5011294;28;20493;-70
2022/11/17 08:15:30;;;;;;;10.82;6.20;;;;;;;;;;5011281;28;20462;-69
2022/11/17 08:17:59;;;;;;;10.83;7.07;;;;;;;;;;5011788;28;20037;-70
2022/11/17 08:20:29;;;;;;;8.73;6.50;;;;;;;;;;5011974;28;20512;-69
2022/11/17 08:22:56;;;;;;;7.68;6.22;;;;;;;;;;5010296;28;20068;-70
2022/11/17 08:25:26;;;;;;;7.75;6.10;;;;;;;;;;5011753;28;20452;-69
2022/11/17 08:27:57;;;;;;;7.88;6.32;;;;;;;;;;4991824;28;20121;-70
2022/11/17 08:30:27;;;;;;;8.18;6.45;;;;;;;;;;5011551;28;20070;-70
2022/11/17 08:32:54;;;;;;;8.38;6.63;;;;;;;;;;5010785;28;20037;-69
2022/11/17 08:35:24;;;;;;;9.70;6.88;;;;;;;;;;5011479;28;20563;-69
2022/11/17 08:37:52;;;;;;;8.10;6.32;;;;;;;;;;5010488;28;20033;-69
2022/11/17 08:40:20;;;;;;;8.05;6.90;;;;;;;;;;5010144;28;20449;-69
2022/11/17 08:42:52;;;;;;;7.07;5.90;;;;;;;;;;5010983;28;20030;-69
2022/11/17 08:45:19;;;;;;;8.45;6.40;;;;;;;;;;5011078;28;20516;-69
2022/11/17 08:47:47;;;;;;;7.35;5.70;;;;;;;;;;5011925;28;20377;-70
2022/11/17 08:50:16;;;;;;;8.95;6.50;;;;;;;;;;5011416;28;20030;-69
2022/11/17 08:52:47;;;;;;;8.80;6.68;;;;;;;;;;5011272;28;20122;-69
2022/11/17 08:55:15;;;;;;;7.45;6.28;;;;;;;;;;5007403;28;20035;-69
2022/11/17 08:57:41;;;;;;;7.43;6.25;;;;;;;;;;5009268;28;20397;-69
2022/11/17 09:00:08;;;;;;;8.15;6.18;;;;;;;;;;5011339;28;20030;-69
2022/11/17 09:02:33;;;;;;;7.90;6.03;;;;;;;;;;5009748;28;20116;-69
2022/11/17 09:04:59;;;;;;;6.57;5.68;;;;;;;;;;5011356;28;20026;-69
2022/11/17 09:07:24;;;;;;;8.80;6.25;;;;;;;;;;5011374;28;20026;-69
2022/11/17 09:09:50;;;;;;;6.80;5.50;;;;;;;;;;5011001;28;20037;-69
2022/11/17 09:12:17;;;;;;;7.55;5.97;;;;;;;;;;5012151;28;20045;-67
2022/11/17 09:14:44;;;;;;;6.80;5.40;;;;;;;;;;5011400;28;20375;-67
2022/11/17 09:17:09;;;;;;;8.65;6.20;;;;;;;;;;5009291;28;20033;-69
2022/11/17 09:19:35;;;;;;;7.95;6.30;;;;;;;;;;5010313;28;20033;-67
2022/11/17 09:22:01;;;;;;;6.85;5.88;;;;;;;;;;5011345;28;20041;-68
2022/11/17 09:24:26;;;;;;;8.38;5.63;;;;;;;;;;5010116;28;20048;-69
2022/11/17 09:26:56;;;;;;;9.05;5.90;;;;;;;;;;5010721;28;20151;-69
2022/11/17 09:29:21;;;;;;;9.17;5.90;;;;;;;;;;5013072;28;20112;-69
2022/11/17 09:31:48;;;;;;;7.25;5.88;;;;;;;;;;5014909;28;20105;-68
2022/11/17 09:34:16;;;;;;;7.25;5.90;;;;;;;;;;5014914;28;20080;-69
2022/11/17 09:36:42;;;;;;;7.65;5.60;;;;;;;;;;5013625;28;20472;-69
2022/11/17 09:39:07;;;;;;;7.60;5.70;;;;;;;;;;5014906;28;20048;-69
2022/11/17 09:41:48;;;;;;;6.35;5.38;;;;;;;;;;5014650;28;20504;-68
2022/11/17 09:44:26;;;;;;;6.90;5.55;;;;;;;;;;5013131;28;20038;-69
2022/11/17 09:47:01;;;;;;;6.43;5.18;;;;;;;;;;5014453;28;20042;-68
2022/11/17 09:49:34;;;;;;;8.35;5.50;;;;;;;;;;5014598;28;20034;-67
2022/11/17 09:52:25;;;;;;;7.10;5.82;;;;;;;;;;5014838;28;20544;-67
2022/11/17 09:54:58;;;;;;;7.55;5.63;;;;;;;;;;5013083;28;20477;-68
2022/11/17 09:57:35;;;;;;;11.55;5.85;;;;;;;;;;5014781;28;20026;-68
2022/11/17 10:00:22;;;;;;;7.57;5.72;;;;;;;;;;5014438;28;20033;-67
2022/11/17 10:02:49;;;;;;;7.15;5.40;;;;;;;;;;5012334;28;20034;-67
2022/11/17 10:05:23;;;;;;;6.97;5.55;;;;;;;;;;5012896;28;20033;-67
2022/11/17 10:07:55;;;;;;;6.75;5.75;;;;;;;;;;5014383;28;20025;-67
2022/11/17 10:10:32;;;;;;;6.18;5.35;;;;;;;;;;5014170;28;20029;-67
2022/11/17 10:13:02;;;;;;;8.25;5.68;;;;;;;;;;5014081;28;20523;-67
2022/11/17 10:15:32;;;;;;;7.78;5.43;;;;;;;;;;5014171;28;20042;-67
2022/11/17 10:17:57;;;;;;;;;;;;;;;;;;5014525;28;20044;-67
2022/11/17 10:20:23;;;;;;;6.35;4.93;;;;;;;;;;5013832;28;19913;-67
2022/11/17 10:22:52;;;;;;;6.85;5.03;;;;;;;;;;5014223;28;20396;-67
2022/11/17 10:25:47;;;;;;;7.43;5.63;;;;;;;;;;5013929;28;20026;-67
2022/11/17 10:28:30;;;;;;;87.13;77.95;;;;;;;;;;5011697;28;20045;-68
2022/11/17 10:31:09;;;;;;;39.60;34.00;;;;;;;;;;5013877;28;20802;-69
2022/11/17 10:33:44;;;;;;;36.90;32.88;;;;;;;;;;5013752;28;20497;-69
2022/11/17 10:36:21;;;;;;;49.90;44.45;;;;;;;;;;5013753;28;20022;-68
2022/11/17 10:38:53;;;;;;;49.60;44.40;;;;;;;;;;5012985;28;20567;-67
2022/11/17 10:41:25;;;;;;;49.15;43.78;;;;;;;;;;5013518;28;20492;-67
2022/11/17 10:44:16;;;;;;;37.85;33.85;;;;;;;;;;5012322;28;20033;-68
2022/11/17 10:46:56;;;;;;;29.13;26.02;;;;;;;;;;5013684;28;20048;-67
2022/11/17 10:49:29;;;;;;;26.33;23.52;;;;;;;;;;5013415;28;20036;-68
2022/11/17 10:52:10;;;;;;;23.98;20.92;;;;;;;;;;5013500;28;20473;-69
2022/11/17 10:54:37;;;;;;;22.92;20.30;;;;;;;;;;5013578;28;20026;-68
2022/11/17 10:57:18;;;;;;;40.45;29.63;;;;;;;;;;5013511;28;20034;-70
2022/11/17 10:59:52;;;;;;;14.85;11.25;;;;;;;;;;5013358;28;20072;-70
2022/11/17 11:02:34;;;;;;;12.63;10.77;;;;;;;;;;5013391;28;20124;-70
2022/11/17 11:05:15;;;;;;;12.05;9.48;;;;;;;;;;5012718;28;20481;-70
2022/11/17 11:07:42;;;;;;;12.98;9.00;;;;;;;;;;5015862;28;20026;-70
2022/11/17 11:10:19;;;;;;;18.35;8.90;;;;;;;;;;5011576;28;20440;-70
2022/11/17 11:13:00;;;;;;;14.88;8.43;;;;;;;;;;5013150;28;20022;-69
2022/11/17 11:15:33;;;;;;;16.30;8.93;;;;;;;;;;5013106;28;20615;-68
2022/11/17 11:17:58;;;;;;;12.95;7.93;;;;;;;;;;5012343;28;20072;-69
2022/11/17 11:20:47;;;;;;;10.25;7.28;;;;;;;;;;5012906;28;20034;-69
2022/11/17 11:23:13;;;;;;;12.80;7.65;;;;;;;;;;5012242;28;20100;-69
2022/11/17 11:26:14;;;;;;;9.60;7.57;;;;;;;;;;5012404;28;20476;-68
2022/11/17 11:28:59;;;;;;;11.20;7.38;;;;;;;;;;5012820;28;20389;-68
2022/11/17 11:31:52;;;;;;;12.57;7.40;;;;;;;;;;5011503;28;20174;-69
2022/11/17 11:34:47;;;;;;;11.32;7.05;;;;;;;;;;5010871;28;20026;-68
2022/11/17 11:37:15;;;;;;;13.02;8.00;;;;;;;;;;5012606;28;20107;-69
2022/11/17 11:39:53;;;;;;;11.88;8.57;;;;;;;;;;5012610;28;20448;-68
2022/11/17 11:42:52;;;;;;;14.63;10.48;;;;;;;;;;5012497;28;20026;-68
2022/11/17 11:45:45;;;;;;;10.68;7.72;;;;;;;;;;5011514;28;20049;-69
2022/11/17 11:48:35;;;;;;;13.02;8.25;;;;;;;;;;5012777;28;20471;-69
2022/11/17 11:51:04;;;;;;;15.75;8.30;;;;;;;;;;5010194;28;20037;-69
2022/11/17 11:53:39;;;;;;;11.27;7.60;;;;;;;;;;5012266;28;20057;-69
2022/11/17 11:56:32;;;;;;;12.27;7.97;;;;;;;;;;5012626;28;20109;-67
2022/11/17 11:59:06;;;;;;;13.43;7.60;;;;;;;;;;5013885;28;20960;-67
2022/11/17 12:01:47;;;;;;;13.10;7.65;;;;;;;;;;5012130;28;20026;-68
2022/11/17 12:04:34;;;;;;;9.65;6.88;;;;;;;;;;5012149;28;20063;-68
2022/11/17 12:07:34;;;;;;;13.30;7.10;;;;;;;;;;5011841;28;20041;-69
2022/11/17 12:10:11;;;;;;;13.13;7.22;;;;;;;;;;4979444;28;20125;-68
2022/11/17 12:12:39;;;;;;;9.95;6.55;;;;;;;;;;5011862;28;20121;-67
2022/11/17 12:15:18;;;;;;;7.88;6.03;;;;;;;;;;5011608;28;20030;-69
2022/11/17 12:18:01;;;;;;;9.20;6.45;;;;;;;;;;5011308;28;20025;-66
2022/11/17 12:20:34;;;;;;;9.68;6.00;;;;;;;;;;5011288;28;20382;-70
2022/11/17 12:23:25;;;;;;;7.80;5.72;;;;;;;;;;5011317;28;20555;-67
2022/11/17 12:25:54;;;;;;;9.95;6.45;;;;;;;;;;5011253;28;20025;-66
2022/11/17 12:28:39;;;;;;;8.45;5.93;;;;;;;;;;5010962;28;20025;-68
2022/11/17 12:31:11;;;;;;;8.20;6.28;;;;;;;;;;5011774;28;20018;-66
2022/11/17 12:33:52;;;;;;;9.07;6.15;;;;;;;;;;5011631;28;20092;-67
2022/11/17 12:36:25;;;;;;;8.35;5.78;;;;;;;;;;5011543;28;20034;-67
2022/11/17 12:38:55;;;;;;;7.38;5.57;;;;;;;;;;5011590;28;20041;-67
2022/11/17 12:41:48;;;;;;;9.03;5.73;;;;;;;;;;5011734;28;20029;-67
2022/11/17 12:44:45;;;;;;;6.93;5.22;;;;;;;;;;5011224;28;20026;-66
2022/11/17 12:47:14;;;;;;;8.30;5.60;;;;;;;;;;5011754;28;20061;-67
2022/11/17 12:50:04;;;;;;;7.25;5.53;;;;;;;;;;5011384;28;20041;-67
2022/11/17 12:52:46;;;;;;;7.30;5.50;;;;;;;;;;5011411;28;20113;-67
2022/11/17 12:55:35;;;;;;;6.47;5.25;;;;;;;;;;5011320;28;20543;-68
2022/11/17 12:58:24;;;;;;;7.50;5.30;;;;;;;;;;5010921;28;20057;-67
2022/11/17 13:01:30;;;;;;;7.05;5.20;;;;;;;;;;5010166;28;20045;-67
2022/11/17 13:04:34;;;;;;;7.57;5.28;;;;;;;;;;5011078;28;20026;-67
2022/11/17 13:07:19;;;;;;;7.93;5.45;;;;;;;;;;5004434;28;20070;-67
2022/11/17 13:09:50;;;;;;;7.55;5.10;;;;;;;;;;5011090;28;20034;-67
2022/11/17 13:12:24;;;;;;;8.85;5.88;;;;;;;;;;5010945;28;20057;-66
2022/11/17 13:14:53;;;;;;;6.68;4.93;;;;;;;;;;5010835;28;20444;-66
2022/11/17 13:17:42;;;;;;;8.80;5.20;;;;;;;;;;5011240;28;20125;-66
2022/11/17 13:20:23;;;;;;;7.35;5.22;;;;;;;;;;5010864;28;20037;-66
2022/11/17 13:23:05;;;;;;;5.78;4.65;;;;;;;;;;5011040;28;20030;-65
2022/11/17 13:25:34;;;;;;;9.32;5.07;;;;;;;;;;5010861;28;20025;-65
2022/11/17 13:28:00;;;;;;;6.78;4.90;;;;;;;;;;5009453;28;20121;-66
2022/11/17 13:30:30;;;;;;;7.03;4.50;;;;;;;;;;5010777;28;20030;-65
2022/11/17 13:33:03;;;;;;;6.72;4.82;;;;;;;;;;5010808;28;20029;-65
2022/11/17 13:35:33;;;;;;;7.90;4.63;;;;;;;;;;5010657;28;20481;-66
2022/11/17 13:38:22;;;;;;;6.28;4.72;;;;;;;;;;5011093;28;20018;-66
2022/11/17 13:40:50;;;;;;;5.78;4.63;;;;;;;;;;5010766;28;20057;-65
2022/11/17 13:43:20;;;;;;;4.75;4.00;;;;;;;;;;5010712;28;20101;-66
2022/11/17 13:45:50;;;;;;;5.97;4.40;;;;;;;;;;5010478;28;20046;-65
2022/11/17 13:48:36;;;;;;;6.82;4.57;;;;;;;;;;5010575;28;20030;-67
2022/11/17 13:51:16;;;;;;;7.32;4.60;;;;;;;;;;5010674;28;20493;-67
2022/11/17 13:53:44;;;;;;;6.80;4.90;;;;;;;;;;5010573;28;20022;-67
2022/11/17 13:56:41;;;;;;;6.50;4.50;;;;;;;;;;5009277;28;20275;-68
2022/11/17 13:59:36;;;;;;;9.27;4.82;;;;;;;;;;5005539;28;20038;-67
2022/11/17 14:02:19;;;;;;;7.47;4.53;;;;;;;;;;5010498;28;20069;-67
2022/11/17 14:05:13;;;;;;;6.75;4.65;;;;;;;;;;5010461;28;20030;-67
2022/11/17 14:07:40;;;;;;;8.27;4.75;;;;;;;;;;5010793;28;20369;-67
2022/11/17 14:10:26;;;;;;;5.78;4.72;;;;;;;;;;5009044;28;20060;-67
2022/11/17 14:13:01;;;;;;;6.53;4.63;;;;;;;;;;5010521;28;20099;-68
2022/11/17 14:15:34;;;;;;;8.00;4.65;;;;;;;;;;5013714;28;20134;-67
2022/11/17 14:18:21;;;;;;;6.88;4.60;;;;;;;;;;5014160;28;20089;-67
2022/11/17 14:20:47;;;;;;;6.18;4.90;;;;;;;;;;5012129;28;20041;-67
2022/11/17 14:23:18;;;;;;;6.72;4.50;;;;;;;;;;5014041;28;20030;-67
2022/11/17 14:25:50;;;;;;;5.80;3.95;;;;;;;;;;5013825;28;20034;-67
2022/11/17 14:28:25;;;;;;;5.68;4.28;;;;;;;;;;5013923;28;20044;-67
2022/11/17 14:30:54;;;;;;;6.28;4.50;;;;;;;;;;5013743;28;20389;-66
2022/11/17 14:33:20;;;;;;;8.10;4.28;;;;;;;;;;5012494;28;20036;-67
2022/11/17 14:35:59;;;;;;;6.38;4.68;;;;;;;;;;5013635;28;20040;-67
2022/11/17 14:38:25;;;;;;;5.72;4.32;;;;;;;;;;5013696;28;20037;-65
2022/11/17 14:40:52;;;;;;;5.65;4.25;;;;;;;;;;5013582;28;20041;-66
2022/11/17 14:43:23;;;;;;;5.90;4.68;;;;;;;;;;5013401;28;20500;-66
2022/11/17 14:45:51;;;;;;;6.75;4.10;;;;;;;;;;5013439;28;20042;-67
2022/11/17 14:48:21;;;;;;;5.10;4.10;;;;;;;;;;5013343;28;20026;-67
2022/11/17 14:50:47;;;;;;;5.43;4.35;;;;;;;;;;5013428;28;20101;-67
2022/11/17 14:53:14;;;;;;;7.53;4.50;;;;;;;;;;5012058;28;20038;-69
2022/11/17 14:55:40;;;;;;;5.03;4.18;;;;;;;;;;5013440;28;20378;-69
2022/11/17 14:58:08;;;;;;;6.18;4.35;;;;;;;;;;5013163;28;20037;-66
2022/11/17 15:00:35;;;;;;;4.97;3.90;;;;;;;;;;5013191;28;20109;-65
2022/11/17 15:03:02;;;;;;;4.97;3.80;;;;;;;;;;5013501;28;20541;-65
2022/11/17 15:05:28;;;;;;;5.53;4.22;;;;;;;;;;5013121;28;20034;-65
2022/11/17 15:07:57;;;;;;;5.03;3.78;;;;;;;;;;5013140;28;20037;-66
2022/11/17 15:10:23;;;;;;;4.05;3.65;;;;;;;;;;5013257;28;20105;-66
2022/11/17 15:12:49;;;;;;;6.75;4.25;;;;;;;;;;5013037;28;20033;-66
2022/11/17 15:15:18;;;;;;;5.90;3.60;;;;;;;;;;5013172;28;20437;-66
2022/11/17 15:17:46;;;;;;;4.82;3.80;;;;;;;;;;5011780;28;20504;-66
2022/11/17 15:20:12;;;;;;;4.80;3.55;;;;;;;;;;5012746;28;20041;-66
2022/11/17 15:22:38;;;;;;;5.68;3.70;;;;;;;;;;5011314;28;20456;-66
2022/11/17 15:25:04;;;;;;;3.78;3.38;;;;;;;;;;5012556;28;20296;-66
2022/11/17 15:27:32;;;;;;;3.63;3.33;;;;;;;;;;5012672;28;20409;-67
2022/11/17 15:29:59;;;;;;;4.90;3.50;;;;;;;;;;5012668;28;20026;-65
2022/11/17 15:32:26;;;;;;;4.10;3.30;;;;;;;;;;5012601;28;20037;-65
2022/11/17 15:34:52;;;;;;;5.82;3.67;;;;;;;;;;5011351;28;20073;-64
2022/11/17 15:37:22;;;;;;;3.92;2.95;;;;;;;;;;5012524;28;20040;-66
2022/11/17 15:39:48;;;;;;;6.38;3.60;;;;;;;;;;5012555;28;20553;-66
2022/11/17 15:42:13;;;;;;;3.55;3.25;;;;;;;;;;5012348;28;20060;-66
2022/11/17 15:44:42;;;;;;;5.05;3.60;;;;;;;;;;5012211;28;20046;-65
2022/11/17 15:47:08;;;;;;;3.60;3.15;;;;;;;;;;5012336;28;20500;-66
2022/11/17 15:49:34;;;;;;;4.13;3.70;;;;;;;;;;5012958;28;20041;-65